sensor_id;sensor_type;location;lat;lon;timestamp;pressure;altitude;pressure_sealevel;temperature;humidity
85140;BME280;75501;52.586;13.284;2024-03-23T00:54:08;100381.69;;;8.14;86.78
85140;BME280;75501;52.586;13.284;2024-03-23T00:56:34;100369.81;;;8.10;87.28
85140;BME280;75501;52.586;13.284;2024-03-23T00:59:01;100375.16;;;8.15;87.13
85140;BME280;75501;52.586;13.284;2024-03-23T01:01:27;100380.72;;;8.24;87.17
85140;BME280;75501;52.586;13.284;2024-03-23T01:03:55;100383.44;;;8.24;86.29
85140;BME280;75501;52.586;13.284;2024-03-23T01:06:21;100380.13;;;8.08;87.40
85140;BME280;75501;52.586;13.284;2024-03-23T01:08:49;100374.78;;;8.03;87.81
85140;BME280;75501;52.586;13.284;2024-03-23T01:11:18;100365.72;;;8.13;86.77
85140;BME280;75501;52.586;13.284;2024-03-23T01:13:46;100360.66;;;8.06;87.04
85140;BME280;75501;52.586;13.284;2024-03-23T01:16:12;100367.09;;;7.91;87.58
85140;BME280;75501;52.586;13.284;2024-03-23T01:18:40;100357.56;;;7.94;87.47
85140;BME280;75501;52.586;13.284;2024-03-23T01:21:06;100351.06;;;7.95;87.39
85140;BME280;75501;52.586;13.284;2024-03-23T01:23:33;100361.16;;;8.08;87.49
85140;BME280;75501;52.586;13.284;2024-03-23T01:25:59;100351.72;;;8.06;87.46
85140;BME280;75501;52.586;13.284;2024-03-23T01:28:28;100350.09;;;8.23;86.97
85140;BME280;75501;52.586;13.284;2024-03-23T01:30:54;100345.50;;;8.05;87.25
85140;BME280;75501;52.586;13.284;2024-03-23T01:33:22;100341.53;;;8.16;87.09
85140;BME280;75501;52.586;13.284;2024-03-23T01:35:48;100327.56;;;8.09;87.53
85140;BME280;75501;52.586;13.284;2024-03-23T01:38:15;100324.56;;;7.92;87.82
85140;BME280;75501;52.586;13.284;2024-03-23T01:40:41;100320.25;;;7.91;87.80
85140;BME280;75501;52.586;13.284;2024-03-23T01:43:09;100314.88;;;8.05;87.43
85140;BME280;75501;52.586;13.284;2024-03-23T01:45:36;100299.88;;;8.12;86.80
85140;BME280;75501;52.586;13.284;2024-03-23T01:48:05;100306.31;;;8.16;87.68
85140;BME280;75501;52.586;13.284;2024-03-23T01:50:32;100311.97;;;8.01;87.47
85140;BME280;75501;52.586;13.284;2024-03-23T01:53:01;100303.78;;;7.87;87.74
85140;BME280;75501;52.586;13.284;2024-03-23T01:55:31;100297.03;;;7.85;87.73
85140;BME280;75501;52.586;13.284;2024-03-23T01:57:59;100283.22;;;7.68;88.14
85140;BME280;75501;52.586;13.284;2024-03-23T02:00:25;100298.28;;;7.74;88.20
85140;BME280;75501;52.586;13.284;2024-03-23T02:02:54;100284.69;;;7.79;88.70
85140;BME280;75501;52.586;13.284;2024-03-23T02:05:22;100296.75;;;7.86;88.02
85140;BME280;75501;52.586;13.284;2024-03-23T02:07:50;100278.97;;;7.80;88.51
85140;BME280;75501;52.586;13.284;2024-03-23T02:10:17;100291.13;;;7.83;87.97
85140;BME280;75501;52.586;13.284;2024-03-23T02:12:44;100273.63;;;7.75;87.95
85140;BME280;75501;52.586;13.284;2024-03-23T02:15:10;100289.94;;;7.89;88.25
85140;BME280;75501;52.586;13.284;2024-03-23T02:17:37;100296.75;;;7.86;87.92
85140;BME280;75501;52.586;13.284;2024-03-23T02:20:05;100287.09;;;7.80;88.59
85140;BME280;75501;52.586;13.284;2024-03-23T02:22:36;100287.03;;;7.85;88.43
85140;BME280;75501;52.586;13.284;2024-03-23T02:25:05;100267.47;;;7.88;88.51
85140;BME280;75501;52.586;13.284;2024-03-23T02:27:33;100270.03;;;7.98;88.22
85140;BME280;75501;52.586;13.284;2024-03-23T02:30:00;100268.72;;;7.96;87.67
85140;BME280;75501;52.586;13.284;2024-03-23T02:32:27;100271.31;;;8.01;87.93
85140;BME280;75501;52.586;13.284;2024-03-23T02:34:54;100257.88;;;7.96;88.26
85140;BME280;75501;52.586;13.284;2024-03-23T02:37:21;100259.13;;;8.04;87.84
85140;BME280;75501;52.586;13.284;2024-03-23T02:39:47;100258.59;;;8.01;87.48
85140;BME280;75501;52.586;13.284;2024-03-23T02:42:16;100246.19;;;7.82;88.13
85140;BME280;75501;52.586;13.284;2024-03-23T02:44:43;100243.75;;;7.80;88.54
85140;BME280;75501;52.586;13.284;2024-03-23T02:47:11;100249.38;;;7.84;88.15
85140;BME280;75501;52.586;13.284;2024-03-23T02:49:37;100237.53;;;7.80;88.47
85140;BME280;75501;52.586;13.284;2024-03-23T02:52:04;100247.00;;;7.82;88.30
85140;BME280;75501;52.586;13.284;2024-03-23T02:54:31;100244.56;;;7.81;88.68
85140;BME280;75501;52.586;13.284;2024-03-23T02:56:58;100240.84;;;7.77;88.26
85140;BME280;75501;52.586;13.284;2024-03-23T02:59:25;100242.94;;;7.80;88.83
85140;BME280;75501;52.586;13.284;2024-03-23T03:01:53;100240.56;;;7.78;88.42
85140;BME280;75501;52.586;13.284;2024-03-23T03:04:19;100242.28;;;7.69;88.46
85140;BME280;75501;52.586;13.284;2024-03-23T03:06:46;100234.38;;;7.73;88.98
85140;BME280;75501;52.586;13.284;2024-03-23T03:09:13;100232.00;;;7.53;88.67
85140;BME280;75501;52.586;13.284;2024-03-23T03:11:40;100234.31;;;7.59;88.67
85140;BME280;75501;52.586;13.284;2024-03-23T03:14:06;100228.78;;;7.50;89.51
85140;BME280;75501;52.586;13.284;2024-03-23T03:16:35;100227.28;;;7.58;88.73
85140;BME280;75501;52.586;13.284;2024-03-23T03:19:01;100221.59;;;7.60;88.85
85140;BME280;75501;52.586;13.284;2024-03-23T03:21:28;100208.66;;;7.57;89.25
85140;BME280;75501;52.586;13.284;2024-03-23T03:23:54;100212.28;;;7.66;88.67
85140;BME280;75501;52.586;13.284;2024-03-23T03:26:22;100217.75;;;7.47;89.24
85140;BME280;75501;52.586;13.284;2024-03-23T03:28:49;100224.16;;;7.51;88.94
85140;BME280;75501;52.586;13.284;2024-03-23T03:31:17;100204.06;;;7.57;89.03
85140;BME280;75501;52.586;13.284;2024-03-23T03:33:45;100210.19;;;7.63;88.43
85140;BME280;75501;52.586;13.284;2024-03-23T03:36:12;100205.19;;;7.70;88.18
85140;BME280;75501;52.586;13.284;2024-03-23T03:38:38;100201.69;;;7.69;87.58
85140;BME280;75501;52.586;13.284;2024-03-23T03:41:05;100202.66;;;7.60;87.38
85140;BME280;75501;52.586;13.284;2024-03-23T03:43:31;100198.69;;;7.52;87.82
85140;BME280;75501;52.586;13.284;2024-03-23T03:46:00;100198.91;;;7.56;87.63
85140;BME280;75501;52.586;13.284;2024-03-23T03:48:26;100198.25;;;7.45;86.24
85140;BME280;75501;52.586;13.284;2024-03-23T03:50:55;100201.13;;;7.54;85.51
85140;BME280;75501;52.586;13.284;2024-03-23T03:53:21;100192.78;;;7.50;85.22
85140;BME280;75501;52.586;13.284;2024-03-23T03:55:48;100183.28;;;7.53;85.05
85140;BME280;75501;52.586;13.284;2024-03-23T03:58:14;100187.31;;;7.36;84.79
85140;BME280;75501;52.586;13.284;2024-03-23T04:00:42;100183.06;;;7.30;85.72
85140;BME280;75501;52.586;13.284;2024-03-23T04:03:08;100177.00;;;7.38;85.55
85140;BME280;75501;52.586;13.284;2024-03-23T04:05:35;100176.72;;;7.40;86.07
85140;BME280;75501;52.586;13.284;2024-03-23T04:08:03;100174.13;;;7.30;85.02
85140;BME280;75501;52.586;13.284;2024-03-23T04:10:31;100174.88;;;7.17;85.28
85140;BME280;75501;52.586;13.284;2024-03-23T04:12:57;100184.28;;;7.19;85.51
85140;BME280;75501;52.586;13.284;2024-03-23T04:15:24;100180.34;;;7.12;86.05
85140;BME280;75501;52.586;13.284;2024-03-23T04:17:50;100172.47;;;7.15;86.01
85140;BME280;75501;52.586;13.284;2024-03-23T04:20:17;100175.09;;;7.20;85.51
85140;BME280;75501;52.586;13.284;2024-03-23T04:22:45;100177.78;;;7.20;86.23
85140;BME280;75501;52.586;13.284;2024-03-23T04:25:13;100174.22;;;7.25;85.60
85140;BME280;75501;52.586;13.284;2024-03-23T04:27:40;100164.53;;;7.37;86.01
85140;BME280;75501;52.586;13.284;2024-03-23T04:30:08;100157.88;;;7.30;86.21
85140;BME280;75501;52.586;13.284;2024-03-23T04:32:36;100150.81;;;7.34;85.70
85140;BME280;75501;52.586;13.284;2024-03-23T04:35:03;100153.28;;;7.30;85.67
85140;BME280;75501;52.586;13.284;2024-03-23T04:37:34;100149.88;;;7.25;86.81
85140;BME280;75501;52.586;13.284;2024-03-23T04:40:01;100149.50;;;7.31;86.50
85140;BME280;75501;52.586;13.284;2024-03-23T04:42:31;100159.38;;;7.22;86.58
85140;BME280;75501;52.586;13.284;2024-03-23T04:44:58;100149.50;;;7.13;87.02
85140;BME280;75501;52.586;13.284;2024-03-23T04:47:25;100147.00;;;7.16;86.90
85140;BME280;75501;52.586;13.284;2024-03-23T04:49:52;100138.44;;;7.09;87.51
85140;BME280;75501;52.586;13.284;2024-03-23T04:52:20;100137.94;;;7.07;87.25
85140;BME280;75501;52.586;13.284;2024-03-23T04:54:47;100136.41;;;7.01;87.20
85140;BME280;75501;52.586;13.284;2024-03-23T04:57:14;100137.06;;;6.93;88.09
85140;BME280;75501;52.586;13.284;2024-03-23T04:59:43;100122.56;;;6.84;87.88
85140;BME280;75501;52.586;13.284;2024-03-23T05:02:09;100119.22;;;6.92;88.18
85140;BME280;75501;52.586;13.284;2024-03-23T05:04:37;100128.56;;;6.81;88.22
85140;BME280;75501;52.586;13.284;2024-03-23T05:07:03;100118.28;;;6.83;88.61
85140;BME280;75501;52.586;13.284;2024-03-23T05:09:30;100121.19;;;6.86;88.34
85140;BME280;75501;52.586;13.284;2024-03-23T05:11:58;100111.19;;;6.87;88.23
85140;BME280;75501;52.586;13.284;2024-03-23T05:14:26;100112.78;;;6.88;88.70
85140;BME280;75501;52.586;13.284;2024-03-23T05:16:54;100108.84;;;6.99;88.42
85140;BME280;75501;52.586;13.284;2024-03-23T05:19:22;100111.47;;;7.23;87.23
85140;BME280;75501;52.586;13.284;2024-03-23T05:21:48;100109.00;;;7.08;87.56
85140;BME280;75501;52.586;13.284;2024-03-23T05:24:15;100105.50;;;7.07;87.23
85140;BME280;75501;52.586;13.284;2024-03-23T05:26:42;100111.72;;;7.08;87.24
85140;BME280;75501;52.586;13.284;2024-03-23T05:29:09;100114.31;;;7.13;87.15
85140;BME280;75501;52.586;13.284;2024-03-23T05:31:39;100104.63;;;7.12;86.74
85140;BME280;75501;52.586;13.284;2024-03-23T05:34:08;100109.72;;;6.94;87.29
85140;BME280;75501;52.586;13.284;2024-03-23T05:36:34;100109.44;;;6.96;87.04
85140;BME280;75501;52.586;13.284;2024-03-23T05:39:02;100113.16;;;7.00;86.63
85140;BME280;75501;52.586;13.284;2024-03-23T05:41:28;100103.53;;;6.94;86.56
85140;BME280;75501;52.586;13.284;2024-03-23T05:43:56;100089.47;;;7.11;86.60
85140;BME280;75501;52.586;13.284;2024-03-23T05:46:22;100089.19;;;6.93;86.99
85140;BME280;75501;52.586;13.284;2024-03-23T05:48:50;100088.38;;;6.93;86.88
85140;BME280;75501;52.586;13.284;2024-03-23T05:51:18;100088.16;;;6.89;86.93
85140;BME280;75501;52.586;13.284;2024-03-23T05:53:45;100073.63;;;6.85;87.02
85140;BME280;75501;52.586;13.284;2024-03-23T05:56:11;100077.72;;;6.83;86.92
85140;BME280;75501;52.586;13.284;2024-03-23T05:58:38;100075.03;;;6.83;86.90
85140;BME280;75501;52.586;13.284;2024-03-23T06:01:04;100076.75;;;6.74;86.84
85140;BME280;75501;52.586;13.284;2024-03-23T06:03:31;100063.38;;;6.64;87.19
85140;BME280;75501;52.586;13.284;2024-03-23T06:05:57;100053.44;;;6.78;87.95
85140;BME280;75501;52.586;13.284;2024-03-23T06:08:26;100058.78;;;7.01;86.30
85140;BME280;75501;52.586;13.284;2024-03-23T06:10:52;100056.75;;;6.93;86.52
85140;BME280;75501;52.586;13.284;2024-03-23T06:13:20;100057.69;;;6.84;86.82
85140;BME280;75501;52.586;13.284;2024-03-23T06:15:50;100054.03;;;6.93;87.15
85140;BME280;75501;52.586;13.284;2024-03-23T06:18:17;100047.25;;;6.96;87.02
85140;BME280;75501;52.586;13.284;2024-03-23T06:20:43;100045.34;;;6.96;86.46
85140;BME280;75501;52.586;13.284;2024-03-23T06:23:10;100037.66;;;6.85;87.06
85140;BME280;75501;52.586;13.284;2024-03-23T06:25:39;100037.72;;;6.98;86.88
85140;BME280;75501;52.586;13.284;2024-03-23T06:28:06;100044.47;;;7.01;86.58
85140;BME280;75501;52.586;13.284;2024-03-23T06:30:32;100042.41;;;6.93;86.91
85140;BME280;75501;52.586;13.284;2024-03-23T06:32:59;100042.47;;;7.07;86.83
85140;BME280;75501;52.586;13.284;2024-03-23T06:35:26;100048.75;;;7.02;85.94
85140;BME280;75501;52.586;13.284;2024-03-23T06:37:53;100048.09;;;7.10;85.99
85140;BME280;75501;52.586;13.284;2024-03-23T06:40:19;100045.03;;;6.98;86.32
85140;BME280;75501;52.586;13.284;2024-03-23T06:42:48;100038.63;;;6.94;86.68
85140;BME280;75501;52.586;13.284;2024-03-23T06:45:14;100026.91;;;6.98;86.46
85140;BME280;75501;52.586;13.284;2024-03-23T06:47:41;100020.22;;;7.28;86.56
85140;BME280;75501;52.586;13.284;2024-03-23T06:50:08;100031.56;;;7.44;85.19
85140;BME280;75501;52.586;13.284;2024-03-23T06:52:36;100025.66;;;7.42;85.40
85140;BME280;75501;52.586;13.284;2024-03-23T06:55:03;100020.78;;;7.58;85.64
85140;BME280;75501;52.586;13.284;2024-03-23T06:57:31;100021.88;;;7.57;85.46
85140;BME280;75501;52.586;13.284;2024-03-23T06:59:58;100010.78;;;7.72;84.70
85140;BME280;75501;52.586;13.284;2024-03-23T07:02:25;100011.44;;;7.50;84.41
85140;BME280;75501;52.586;13.284;2024-03-23T07:04:52;100012.47;;;7.68;84.55
85140;BME280;75501;52.586;13.284;2024-03-23T07:07:19;99999.03;;;7.63;84.66
85140;BME280;75501;52.586;13.284;2024-03-23T07:09:45;100002.47;;;7.68;84.20
85140;BME280;75501;52.586;13.284;2024-03-23T07:12:12;100006.47;;;7.84;84.31
85140;BME280;75501;52.586;13.284;2024-03-23T07:14:38;99994.53;;;7.99;84.23
85140;BME280;75501;52.586;13.284;2024-03-23T07:17:06;100001.78;;;8.04;83.37
85140;BME280;75501;52.586;13.284;2024-03-23T07:19:33;100006.88;;;8.05;83.79
85140;BME280;75501;52.586;13.284;2024-03-23T07:22:00;100004.75;;;8.29;82.73
85140;BME280;75501;52.586;13.284;2024-03-23T07:24:26;100002.94;;;8.25;82.44
85140;BME280;75501;52.586;13.284;2024-03-23T07:26:53;99988.69;;;8.33;81.97
85140;BME280;75501;52.586;13.284;2024-03-23T07:29:19;99993.81;;;8.21;82.46
85140;BME280;75501;52.586;13.284;2024-03-23T07:31:46;99997.41;;;8.43;82.51
85140;BME280;75501;52.586;13.284;2024-03-23T07:34:14;100000.53;;;8.23;81.40
85140;BME280;75501;52.586;13.284;2024-03-23T07:36:41;99997.94;;;7.91;81.93
85140;BME280;75501;52.586;13.284;2024-03-23T07:39:07;99992.94;;;7.98;81.93
85140;BME280;75501;52.586;13.284;2024-03-23T07:41:34;99991.84;;;7.85;82.67
85140;BME280;75501;52.586;13.284;2024-03-23T07:44:01;99999.34;;;7.88;82.82
85140;BME280;75501;52.586;13.284;2024-03-23T07:46:28;99997.81;;;7.55;83.33
85140;BME280;75501;52.586;13.284;2024-03-23T07:48:54;99993.66;;;7.30;83.30
85140;BME280;75501;52.586;13.284;2024-03-23T07:51:23;99984.72;;;7.30;83.70
85140;BME280;75501;52.586;13.284;2024-03-23T07:53:50;99991.72;;;7.17;83.94
85140;BME280;75501;52.586;13.284;2024-03-23T07:56:18;99988.66;;;7.05;84.45
85140;BME280;75501;52.586;13.284;2024-03-23T07:58:44;99995.53;;;7.16;83.60
85140;BME280;75501;52.586;13.284;2024-03-23T08:01:13;99993.94;;;7.15;83.61
85140;BME280;75501;52.586;13.284;2024-03-23T08:03:41;100002.88;;;6.97;84.62
85140;BME280;75501;52.586;13.284;2024-03-23T08:06:10;100000.28;;;7.06;85.04
85140;BME280;75501;52.586;13.284;2024-03-23T08:08:41;99988.63;;;6.91;85.11
85140;BME280;75501;52.586;13.284;2024-03-23T08:11:09;99982.66;;;6.76;86.37
85140;BME280;75501;52.586;13.284;2024-03-23T08:13:36;99982.34;;;6.96;85.16
85140;BME280;75501;52.586;13.284;2024-03-23T08:16:04;99979.28;;;6.84;85.36
85140;BME280;75501;52.586;13.284;2024-03-23T08:18:32;99997.13;;;6.85;84.82
85140;BME280;75501;52.586;13.284;2024-03-23T08:21:01;99974.72;;;6.66;85.30
85140;BME280;75501;52.586;13.284;2024-03-23T08:23:29;99974.28;;;6.59;84.52
85140;BME280;75501;52.586;13.284;2024-03-23T08:25:59;99978.59;;;6.41;85.58
85140;BME280;75501;52.586;13.284;2024-03-23T08:28:26;99971.50;;;6.26;84.99
85140;BME280;75501;52.586;13.284;2024-03-23T08:30:54;99973.97;;;6.41;85.88
85140;BME280;75501;52.586;13.284;2024-03-23T08:33:21;99969.31;;;6.28;85.23
85140;BME280;75501;52.586;13.284;2024-03-23T08:35:55;99973.16;;;6.22;85.23
85140;BME280;75501;52.586;13.284;2024-03-23T08:38:22;99975.13;;;6.17;85.55
85140;BME280;75501;52.586;13.284;2024-03-23T08:40:56;99977.94;;;6.30;85.12
85140;BME280;75501;52.586;13.284;2024-03-23T08:43:25;99963.09;;;6.46;84.67
85140;BME280;75501;52.586;13.284;2024-03-23T08:45:52;99970.13;;;6.47;85.59
85140;BME280;75501;52.586;13.284;2024-03-23T08:48:19;99978.38;;;6.37;84.94
85140;BME280;75501;52.586;13.284;2024-03-23T08:50:47;99976.16;;;6.39;85.09
85140;BME280;75501;52.586;13.284;2024-03-23T08:53:14;99971.44;;;6.50;84.17
85140;BME280;75501;52.586;13.284;2024-03-23T08:55:41;99969.88;;;6.25;83.77
85140;BME280;75501;52.586;13.284;2024-03-23T08:58:07;99972.63;;;6.20;84.07
85140;BME280;75501;52.586;13.284;2024-03-23T09:00:36;99973.31;;;6.12;84.66
85140;BME280;75501;52.586;13.284;2024-03-23T09:03:03;99958.56;;;5.81;82.68
85140;BME280;75501;52.586;13.284;2024-03-23T09:05:31;99953.38;;;5.61;84.09
85140;BME280;75501;52.586;13.284;2024-03-23T09:08:01;99966.50;;;5.67;83.41
85140;BME280;75501;52.586;13.284;2024-03-23T09:10:29;99972.38;;;5.74;82.73
85140;BME280;75501;52.586;13.284;2024-03-23T09:12:55;99970.34;;;5.90;82.92
85140;BME280;75501;52.586;13.284;2024-03-23T09:15:23;99962.34;;;5.80;82.82
85140;BME280;75501;52.586;13.284;2024-03-23T09:18:00;99985.38;;;5.96;83.39
85140;BME280;75501;52.586;13.284;2024-03-23T09:20:27;99988.97;;;6.10;83.58
85140;BME280;75501;52.586;13.284;2024-03-23T09:22:54;99973.38;;;6.07;82.98
85140;BME280;75501;52.586;13.284;2024-03-23T09:25:21;99984.63;;;6.14;82.93
85140;BME280;75501;52.586;13.284;2024-03-23T09:27:47;99987.53;;;6.18;82.53
85140;BME280;75501;52.586;13.284;2024-03-23T09:30:15;99988.06;;;5.96;82.67
85140;BME280;75501;52.586;13.284;2024-03-23T09:32:42;99987.84;;;6.16;83.40
85140;BME280;75501;52.586;13.284;2024-03-23T09:35:12;99990.97;;;6.05;82.11
85140;BME280;75501;52.586;13.284;2024-03-23T09:37:38;99994.03;;;6.17;84.35
85140;BME280;75501;52.586;13.284;2024-03-23T09:40:09;99986.09;;;6.25;82.97
85140;BME280;75501;52.586;13.284;2024-03-23T09:42:37;99986.09;;;6.25;83.77
85140;BME280;75501;52.586;13.284;2024-03-23T09:45:06;99991.06;;;6.37;83.71
85140;BME280;75501;52.586;13.284;2024-03-23T09:47:43;99991.63;;;6.15;82.89
85140;BME280;75501;52.586;13.284;2024-03-23T09:50:14;99995.31;;;6.00;83.35
85140;BME280;75501;52.586;13.284;2024-03-23T09:52:40;99994.59;;;5.95;81.79
85140;BME280;75501;52.586;13.284;2024-03-23T09:55:08;99996.63;;;6.03;82.31
85140;BME280;75501;52.586;13.284;2024-03-23T09:57:35;99999.41;;;5.98;83.06
85140;BME280;75501;52.586;13.284;2024-03-23T10:00:03;100008.09;;;5.95;82.94
85140;BME280;75501;52.586;13.284;2024-03-23T10:02:30;100006.69;;;5.74;82.19
85140;BME280;75501;52.586;13.284;2024-03-23T10:04:57;100016.97;;;5.95;82.37
85140;BME280;75501;52.586;13.284;2024-03-23T10:07:25;100010.63;;;5.81;81.46
85140;BME280;75501;52.586;13.284;2024-03-23T10:09:54;100011.41;;;5.87;82.22
85140;BME280;75501;52.586;13.284;2024-03-23T10:12:23;100021.50;;;6.00;82.99
85140;BME280;75501;52.586;13.284;2024-03-23T10:14:53;100020.00;;;5.89;81.62
85140;BME280;75501;52.586;13.284;2024-03-23T10:17:20;100009.88;;;5.76;81.75
85140;BME280;75501;52.586;13.284;2024-03-23T10:19:50;100028.97;;;5.84;81.70
85140;BME280;75501;52.586;13.284;2024-03-23T10:22:19;100043.69;;;5.97;82.05
85140;BME280;75501;52.586;13.284;2024-03-23T10:24:49;100035.25;;;5.75;82.00
85140;BME280;75501;52.586;13.284;2024-03-23T10:27:16;100049.63;;;5.70;83.75
85140;BME280;75501;52.586;13.284;2024-03-23T10:29:44;100027.66;;;5.53;83.80
85140;BME280;75501;52.586;13.284;2024-03-23T10:32:12;100050.69;;;5.69;85.06
85140;BME280;75501;52.586;13.284;2024-03-23T10:34:40;100046.50;;;5.82;84.78
85140;BME280;75501;52.586;13.284;2024-03-23T10:37:08;100051.50;;;5.98;84.44
85140;BME280;75501;52.586;13.284;2024-03-23T10:39:38;100042.72;;;6.12;84.28
85140;BME280;75501;52.586;13.284;2024-03-23T10:42:09;100042.47;;;6.08;84.06
85140;BME280;75501;52.586;13.284;2024-03-23T10:44:36;100038.25;;;6.02;84.68
85140;BME280;75501;52.586;13.284;2024-03-23T10:47:04;100046.69;;;6.19;84.35
85140;BME280;75501;52.586;13.284;2024-03-23T10:49:33;100034.38;;;6.08;83.79
85140;BME280;75501;52.586;13.284;2024-03-23T10:52:04;100036.41;;;6.40;83.84
85140;BME280;75501;52.586;13.284;2024-03-23T10:54:32;100042.34;;;6.61;82.81
85140;BME280;75501;52.586;13.284;2024-03-23T10:57:04;100041.03;;;6.77;81.93
85140;BME280;75501;52.586;13.284;2024-03-23T10:59:37;100037.66;;;6.47;81.96
85140;BME280;75501;52.586;13.284;2024-03-23T11:02:05;100045.25;;;6.45;80.07
85140;BME280;75501;52.586;13.284;2024-03-23T11:04:34;100039.63;;;6.42;81.07
85140;BME280;75501;52.586;13.284;2024-03-23T11:07:29;100047.91;;;6.50;81.00
85140;BME280;75501;52.586;13.284;2024-03-23T11:09:57;100046.56;;;6.67;79.47
85140;BME280;75501;52.586;13.284;2024-03-23T11:12:31;100028.69;;;6.71;80.48
85140;BME280;75501;52.586;13.284;2024-03-23T11:15:04;100033.88;;;6.67;76.45
85140;BME280;75501;52.586;13.284;2024-03-23T11:17:32;100046.06;;;6.46;76.59
85140;BME280;75501;52.586;13.284;2024-03-23T11:19:59;100049.03;;;6.26;78.36
85140;BME280;75501;52.586;13.284;2024-03-23T11:22:43;100052.84;;;6.43;81.01
85140;BME280;75501;52.586;13.284;2024-03-23T11:25:17;100050.50;;;6.56;78.61
85140;BME280;75501;52.586;13.284;2024-03-23T11:27:47;100041.91;;;6.54;79.80
85140;BME280;75501;52.586;13.284;2024-03-23T11:30:16;100039.78;;;6.50;78.89
85140;BME280;75501;52.586;13.284;2024-03-23T11:32:45;100047.81;;;6.56;79.16
85140;BME280;75501;52.586;13.284;2024-03-23T11:35:26;100037.59;;;6.53;80.03
85140;BME280;75501;52.586;13.284;2024-03-23T11:38:05;100066.25;;;6.72;78.13
85140;BME280;75501;52.586;13.284;2024-03-23T11:40:33;100059.50;;;6.70;78.55
85140;BME280;75501;52.586;13.284;2024-03-23T11:43:03;100065.50;;;6.85;78.15
85140;BME280;75501;52.586;13.284;2024-03-23T11:45:35;100073.16;;;7.16;77.47
85140;BME280;75501;52.586;13.284;2024-03-23T11:48:06;100074.06;;;6.92;77.21
85140;BME280;75501;52.586;13.284;2024-03-23T11:50:35;100076.34;;;7.04;77.46
85140;BME280;75501;52.586;13.284;2024-03-23T11:53:14;100066.28;;;7.23;77.57
85140;BME280;75501;52.586;13.284;2024-03-23T11:55:48;100077.69;;;7.20;77.13
85140;BME280;75501;52.586;13.284;2024-03-23T11:58:18;100081.91;;;7.26;77.74
85140;BME280;75501;52.586;13.284;2024-03-23T12:00:51;100079.19;;;7.45;77.55
85140;BME280;75501;52.586;13.284;2024-03-23T12:03:20;100084.63;;;7.26;77.50
85140;BME280;75501;52.586;13.284;2024-03-23T12:05:49;100079.69;;;7.15;78.71
85140;BME280;75501;52.586;13.284;2024-03-23T12:08:20;100086.84;;;7.06;77.96
85140;BME280;75501;52.586;13.284;2024-03-23T12:10:50;100072.44;;;7.10;78.73
85140;BME280;75501;52.586;13.284;2024-03-23T12:13:20;100077.78;;;7.47;77.82
85140;BME280;75501;52.586;13.284;2024-03-23T12:15:50;100052.03;;;7.18;76.88
85140;BME280;75501;52.586;13.284;2024-03-23T12:18:23;100080.59;;;7.42;77.99
85140;BME280;75501;52.586;13.284;2024-03-23T12:20:50;100068.88;;;7.47;77.79
85140;BME280;75501;52.586;13.284;2024-03-23T12:23:17;100061.81;;;7.32;77.75
85140;BME280;75501;52.586;13.284;2024-03-23T12:25:44;100040.56;;;7.26;77.41
85140;BME280;75501;52.586;13.284;2024-03-23T12:28:11;100049.09;;;7.33;77.45
85140;BME280;75501;52.586;13.284;2024-03-23T12:30:39;100063.97;;;6.98;77.75
85140;BME280;75501;52.586;13.284;2024-03-23T12:33:13;100053.94;;;7.17;78.07
85140;BME280;75501;52.586;13.284;2024-03-23T12:35:39;100060.63;;;7.38;77.62
85140;BME280;75501;52.586;13.284;2024-03-23T12:38:16;100055.94;;;7.90;76.96
85140;BME280;75501;52.586;13.284;2024-03-23T12:40:46;100059.44;;;7.90;74.23
85140;BME280;75501;52.586;13.284;2024-03-23T12:43:14;100056.16;;;7.93;72.51
85140;BME280;75501;52.586;13.284;2024-03-23T12:45:40;100047.09;;;7.98;71.77
85140;BME280;75501;52.586;13.284;2024-03-23T12:48:11;100055.69;;;7.73;71.70
85140;BME280;75501;52.586;13.284;2024-03-23T12:50:37;100050.81;;;7.88;73.15
85140;BME280;75501;52.586;13.284;2024-03-23T12:53:04;100049.19;;;8.01;72.68
85140;BME280;75501;52.586;13.284;2024-03-23T12:55:31;100036.97;;;8.04;73.72
85140;BME280;75501;52.586;13.284;2024-03-23T12:57:58;100043.41;;;8.21;72.49
85140;BME280;75501;52.586;13.284;2024-03-23T13:00:24;100036.47;;;8.15;72.19
85140;BME280;75501;52.586;13.284;2024-03-23T13:02:52;100033.97;;;7.91;73.33
85140;BME280;75501;52.586;13.284;2024-03-23T13:05:19;100037.88;;;7.72;72.78
85140;BME280;75501;52.586;13.284;2024-03-23T13:07:46;100044.91;;;8.00;73.81
85140;BME280;75501;52.586;13.284;2024-03-23T13:10:12;100048.75;;;8.76;73.18
85140;BME280;75501;52.586;13.284;2024-03-23T13:12:40;100058.25;;;8.51;70.86
85140;BME280;75501;52.586;13.284;2024-03-23T13:15:08;100051.56;;;8.84;71.62
85140;BME280;75501;52.586;13.284;2024-03-23T13:20:20;100037.75;;;8.59;71.53
85140;BME280;75501;52.586;13.284;2024-03-23T13:22:47;100044.22;;;8.49;70.75
85140;BME280;75501;52.586;13.284;2024-03-23T13:25:13;100042.09;;;8.46;71.75
85140;BME280;75501;52.586;13.284;2024-03-23T13:27:41;100023.66;;;8.70;71.49
85140;BME280;75501;52.586;13.284;2024-03-23T13:30:08;100037.94;;;8.98;69.96
85140;BME280;75501;52.586;13.284;2024-03-23T13:32:36;100032.94;;;9.36;69.14
85140;BME280;75501;52.586;13.284;2024-03-23T13:35:03;100030.47;;;9.26;69.27
85140;BME280;75501;52.586;13.284;2024-03-23T13:37:33;100033.25;;;9.12;68.72
85140;BME280;75501;52.586;13.284;2024-03-23T13:39:59;100022.09;;;8.91;70.27
85140;BME280;75501;52.586;13.284;2024-03-23T13:42:27;100029.38;;;8.69;69.12
85140;BME280;75501;52.586;13.284;2024-03-23T13:44:54;100028.44;;;8.87;69.48
85140;BME280;75501;52.586;13.284;2024-03-23T13:47:21;100029.44;;;8.91;68.52
85140;BME280;75501;52.586;13.284;2024-03-23T13:49:47;100032.94;;;8.91;69.36
85140;BME280;75501;52.586;13.284;2024-03-23T13:52:16;100025.97;;;9.21;67.97